sensor_id;sensor_type;location;lat;lon;timestamp;P1;durP1;ratioP1;P2;durP2;ratioP2
7845;SDS011;3968;51.424;6.788;2024-03-17T00:00:14;7.37;;;4.53;;
7845;SDS011;3968;51.424;6.788;2024-03-17T00:02:40;7.10;;;4.93;;
7845;SDS011;3968;51.424;6.788;2024-03-17T00:05:06;9.37;;;4.27;;
7845;SDS011;3968;51.424;6.788;2024-03-17T00:07:32;7.70;;;4.17;;
7845;SDS011;3968;51.424;6.788;2024-03-17T00:09:58;7.77;;;4.70;;
7845;SDS011;3968;51.424;6.788;2024-03-17T00:12:23;7.77;;;4.30;;
7845;SDS011;3968;51.424;6.788;2024-03-17T00:14:49;5.77;;;4.13;;
7845;SDS011;3968;51.424;6.788;2024-03-17T00:17:14;6.13;;;4.70;;
7845;SDS011;3968;51.424;6.788;2024-03-17T00:19:40;7.27;;;4.80;;
7845;SDS011;3968;51.424;6.788;2024-03-17T00:22:06;7.77;;;4.40;;
7845;SDS011;3968;51.424;6.788;2024-03-17T00:24:34;7.53;;;4.93;;
7845;SDS011;3968;51.424;6.788;2024-03-17T00:27:01;7.23;;;4.43;;
7845;SDS011;3968;51.424;6.788;2024-03-17T00:29:26;7.80;;;4.50;;
7845;SDS011;3968;51.424;6.788;2024-03-17T00:31:53;7.30;;;5.13;;
7845;SDS011;3968;51.424;6.788;2024-03-17T00:34:19;9.77;;;4.90;;
7845;SDS011;3968;51.424;6.788;2024-03-17T00:36:45;7.47;;;4.47;;
7845;SDS011;3968;51.424;6.788;2024-03-17T00:39:11;8.87;;;4.40;;
7845;SDS011;3968;51.424;6.788;2024-03-17T00:41:37;6.03;;;4.30;;
7845;SDS011;3968;51.424;6.788;2024-03-17T00:44:03;7.50;;;4.47;;
7845;SDS011;3968;51.424;6.788;2024-03-17T00:46:29;6.20;;;4.40;;
7845;SDS011;3968;51.424;6.788;2024-03-17T00:48:55;10.13;;;4.63;;
7845;SDS011;3968;51.424;6.788;2024-03-17T00:51:21;7.87;;;4.60;;
7845;SDS011;3968;51.424;6.788;2024-03-17T00:53:46;9.47;;;4.30;;
7845;SDS011;3968;51.424;6.788;2024-03-17T00:56:12;5.97;;;4.03;;
7845;SDS011;3968;51.424;6.788;2024-03-17T00:58:37;8.90;;;4.90;;
7845;SDS011;3968;51.424;6.788;2024-03-17T01:01:03;7.97;;;4.47;;
7845;SDS011;3968;51.424;6.788;2024-03-17T01:03:29;12.10;;;5.20;;
7845;SDS011;3968;51.424;6.788;2024-03-17T01:05:54;9.60;;;4.53;;
7845;SDS011;3968;51.424;6.788;2024-03-17T01:08:20;5.70;;;4.10;;
7845;SDS011;3968;51.424;6.788;2024-03-17T01:10:46;8.07;;;4.60;;
7845;SDS011;3968;51.424;6.788;2024-03-17T01:13:14;6.53;;;4.17;;
7845;SDS011;3968;51.424;6.788;2024-03-17T01:15:40;7.10;;;4.53;;
7845;SDS011;3968;51.424;6.788;2024-03-17T01:18:06;6.20;;;4.50;;
7845;SDS011;3968;51.424;6.788;2024-03-17T01:20:32;8.23;;;4.40;;
7845;SDS011;3968;51.424;6.788;2024-03-17T01:23:00;5.73;;;4.03;;
7845;SDS011;3968;51.424;6.788;2024-03-17T01:25:27;9.33;;;4.77;;
7845;SDS011;3968;51.424;6.788;2024-03-17T01:27:54;8.60;;;4.10;;
7845;SDS011;3968;51.424;6.788;2024-03-17T01:30:21;9.03;;;3.70;;
7845;SDS011;3968;51.424;6.788;2024-03-17T01:32:47;7.37;;;4.60;;
7845;SDS011;3968;51.424;6.788;2024-03-17T01:35:14;8.53;;;4.43;;
7845;SDS011;3968;51.424;6.788;2024-03-17T01:37:39;5.87;;;4.00;;
7845;SDS011;3968;51.424;6.788;2024-03-17T01:40:06;6.33;;;4.07;;
7845;SDS011;3968;51.424;6.788;2024-03-17T01:42:38;5.73;;;3.83;;
7845;SDS011;3968;51.424;6.788;2024-03-17T01:47:42;4.97;;;3.93;;
7845;SDS011;3968;51.424;6.788;2024-03-17T01:50:09;4.77;;;3.90;;
7845;SDS011;3968;51.424;6.788;2024-03-17T01:52:37;7.43;;;4.27;;
7845;SDS011;3968;51.424;6.788;2024-03-17T01:55:03;6.10;;;4.53;;
7845;SDS011;3968;51.424;6.788;2024-03-17T01:57:29;10.07;;;4.60;;
7845;SDS011;3968;51.424;6.788;2024-03-17T01:59:55;9.70;;;4.70;;
7845;SDS011;3968;51.424;6.788;2024-03-17T02:02:22;10.63;;;4.67;;
7845;SDS011;3968;51.424;6.788;2024-03-17T02:04:47;8.50;;;4.23;;
7845;SDS011;3968;51.424;6.788;2024-03-17T02:07:13;6.40;;;4.13;;
7845;SDS011;3968;51.424;6.788;2024-03-17T02:09:40;8.77;;;4.67;;
7845;SDS011;3968;51.424;6.788;2024-03-17T02:12:06;8.97;;;4.73;;
7845;SDS011;3968;51.424;6.788;2024-03-17T02:14:32;5.50;;;4.13;;
7845;SDS011;3968;51.424;6.788;2024-03-17T02:16:58;7.27;;;4.37;;
7845;SDS011;3968;51.424;6.788;2024-03-17T02:19:24;7.30;;;4.50;;
7845;SDS011;3968;51.424;6.788;2024-03-17T02:21:50;8.13;;;4.23;;
7845;SDS011;3968;51.424;6.788;2024-03-17T02:24:16;8.87;;;4.50;;
7845;SDS011;3968;51.424;6.788;2024-03-17T02:26:41;9.60;;;4.27;;
7845;SDS011;3968;51.424;6.788;2024-03-17T02:29:07;8.67;;;4.37;;
7845;SDS011;3968;51.424;6.788;2024-03-17T02:31:32;5.90;;;4.13;;
7845;SDS011;3968;51.424;6.788;2024-03-17T02:33:58;9.77;;;4.63;;
7845;SDS011;3968;51.424;6.788;2024-03-17T02:36:23;8.70;;;4.37;;
7845;SDS011;3968;51.424;6.788;2024-03-17T02:38:49;6.67;;;3.83;;
7845;SDS011;3968;51.424;6.788;2024-03-17T02:41:33;11.07;;;4.73;;
7845;SDS011;3968;51.424;6.788;2024-03-17T02:43:59;7.00;;;4.40;;
7845;SDS011;3968;51.424;6.788;2024-03-17T02:46:24;11.83;;;4.47;;
7845;SDS011;3968;51.424;6.788;2024-03-17T02:48:51;5.47;;;4.10;;
7845;SDS011;3968;51.424;6.788;2024-03-17T02:51:18;10.03;;;3.93;;
7845;SDS011;3968;51.424;6.788;2024-03-17T02:53:45;9.63;;;4.70;;
7845;SDS011;3968;51.424;6.788;2024-03-17T02:56:12;6.77;;;4.93;;
7845;SDS011;3968;51.424;6.788;2024-03-17T02:58:41;6.80;;;4.53;;
7845;SDS011;3968;51.424;6.788;2024-03-17T03:01:07;7.37;;;4.33;;
7845;SDS011;3968;51.424;6.788;2024-03-17T03:03:34;12.90;;;5.57;;
7845;SDS011;3968;51.424;6.788;2024-03-17T03:06:01;6.83;;;4.70;;
7845;SDS011;3968;51.424;6.788;2024-03-17T03:08:34;6.20;;;5.10;;
7845;SDS011;3968;51.424;6.788;2024-03-17T03:11:01;9.03;;;4.80;;
7845;SDS011;3968;51.424;6.788;2024-03-17T03:13:29;8.00;;;4.53;;
7845;SDS011;3968;51.424;6.788;2024-03-17T03:15:54;10.60;;;4.63;;
7845;SDS011;3968;51.424;6.788;2024-03-17T03:18:20;10.67;;;5.10;;
7845;SDS011;3968;51.424;6.788;2024-03-17T03:20:52;10.20;;;5.20;;
7845;SDS011;3968;51.424;6.788;2024-03-17T03:23:18;8.57;;;5.03;;
7845;SDS011;3968;51.424;6.788;2024-03-17T03:25:44;9.63;;;5.17;;
7845;SDS011;3968;51.424;6.788;2024-03-17T03:28:12;11.67;;;5.63;;
7845;SDS011;3968;51.424;6.788;2024-03-17T03:30:38;8.60;;;5.23;;
7845;SDS011;3968;51.424;6.788;2024-03-17T03:33:04;8.07;;;5.50;;
7845;SDS011;3968;51.424;6.788;2024-03-17T03:35:30;9.07;;;5.63;;
7845;SDS011;3968;51.424;6.788;2024-03-17T03:37:56;8.57;;;5.53;;
7845;SDS011;3968;51.424;6.788;2024-03-17T03:40:22;7.60;;;5.67;;
7845;SDS011;3968;51.424;6.788;2024-03-17T03:42:47;8.23;;;5.70;;
7845;SDS011;3968;51.424;6.788;2024-03-17T03:45:13;8.60;;;5.50;;
7845;SDS011;3968;51.424;6.788;2024-03-17T03:47:39;11.43;;;5.90;;
7845;SDS011;3968;51.424;6.788;2024-03-17T03:50:09;6.67;;;5.43;;
7845;SDS011;3968;51.424;6.788;2024-03-17T03:52:38;9.40;;;6.10;;
7845;SDS011;3968;51.424;6.788;2024-03-17T03:55:06;7.00;;;5.53;;
7845;SDS011;3968;51.424;6.788;2024-03-17T03:57:35;7.20;;;5.87;;
7845;SDS011;3968;51.424;6.788;2024-03-17T04:00:01;7.60;;;5.63;;
7845;SDS011;3968;51.424;6.788;2024-03-17T04:02:47;9.13;;;5.83;;
7845;SDS011;3968;51.424;6.788;2024-03-17T04:05:13;10.60;;;6.40;;
7845;SDS011;3968;51.424;6.788;2024-03-17T04:07:39;7.53;;;5.77;;
7845;SDS011;3968;51.424;6.788;2024-03-17T04:10:05;9.70;;;6.40;;
7845;SDS011;3968;51.424;6.788;2024-03-17T04:12:31;8.13;;;6.60;;
7845;SDS011;3968;51.424;6.788;2024-03-17T04:14:58;12.80;;;6.77;;
7845;SDS011;3968;51.424;6.788;2024-03-17T04:17:24;10.97;;;6.43;;
7845;SDS011;3968;51.424;6.788;2024-03-17T04:19:50;8.13;;;6.27;;
7845;SDS011;3968;51.424;6.788;2024-03-17T04:22:17;8.47;;;6.63;;
7845;SDS011;3968;51.424;6.788;2024-03-17T04:24:43;11.37;;;7.23;;
7845;SDS011;3968;51.424;6.788;2024-03-17T04:27:10;8.97;;;6.40;;
7845;SDS011;3968;51.424;6.788;2024-03-17T04:29:36;12.23;;;7.07;;
7845;SDS011;3968;51.424;6.788;2024-03-17T04:32:02;9.03;;;6.50;;
7845;SDS011;3968;51.424;6.788;2024-03-17T04:34:29;10.13;;;6.60;;
7845;SDS011;3968;51.424;6.788;2024-03-17T04:36:56;11.43;;;7.10;;
7845;SDS011;3968;51.424;6.788;2024-03-17T04:39:22;10.33;;;7.00;;
7845;SDS011;3968;51.424;6.788;2024-03-17T04:41:48;13.70;;;6.73;;
7845;SDS011;3968;51.424;6.788;2024-03-17T04:44:15;10.63;;;6.50;;
7845;SDS011;3968;51.424;6.788;2024-03-17T04:46:40;11.33;;;6.43;;
7845;SDS011;3968;51.424;6.788;2024-03-17T04:49:06;10.67;;;7.17;;
7845;SDS011;3968;51.424;6.788;2024-03-17T04:51:33;9.90;;;6.60;;
7845;SDS011;3968;51.424;6.788;2024-03-17T04:53:59;10.43;;;6.97;;
7845;SDS011;3968;51.424;6.788;2024-03-17T04:56:24;12.17;;;7.23;;
7845;SDS011;3968;51.424;6.788;2024-03-17T04:58:50;8.33;;;6.77;;
7845;SDS011;3968;51.424;6.788;2024-03-17T05:01:16;11.07;;;6.83;;
7845;SDS011;3968;51.424;6.788;2024-03-17T05:03:41;9.63;;;6.83;;
7845;SDS011;3968;51.424;6.788;2024-03-17T05:06:07;9.60;;;7.40;;
7845;SDS011;3968;51.424;6.788;2024-03-17T05:08:33;9.57;;;6.90;;
7845;SDS011;3968;51.424;6.788;2024-03-17T05:11:04;11.17;;;6.97;;
7845;SDS011;3968;51.424;6.788;2024-03-17T05:13:31;10.93;;;7.13;;
7845;SDS011;3968;51.424;6.788;2024-03-17T05:15:57;11.30;;;6.97;;
7845;SDS011;3968;51.424;6.788;2024-03-17T05:18:24;8.70;;;6.70;;
7845;SDS011;3968;51.424;6.788;2024-03-17T05:21:00;10.57;;;6.20;;
7845;SDS011;3968;51.424;6.788;2024-03-17T05:23:28;9.00;;;6.53;;
7845;SDS011;3968;51.424;6.788;2024-03-17T05:25:58;8.90;;;6.33;;
7845;SDS011;3968;51.424;6.788;2024-03-17T05:28:25;8.27;;;7.37;;
7845;SDS011;3968;51.424;6.788;2024-03-17T05:30:54;9.30;;;6.67;;
7845;SDS011;3968;51.424;6.788;2024-03-17T05:33:22;8.87;;;7.00;;
7845;SDS011;3968;51.424;6.788;2024-03-17T05:35:52;8.83;;;6.33;;
7845;SDS011;3968;51.424;6.788;2024-03-17T05:38:19;12.03;;;6.43;;
7845;SDS011;3968;51.424;6.788;2024-03-17T05:40:59;9.77;;;6.77;;
7845;SDS011;3968;51.424;6.788;2024-03-17T05:43:35;10.63;;;6.53;;
7845;SDS011;3968;51.424;6.788;2024-03-17T05:46:03;10.97;;;6.93;;
7845;SDS011;3968;51.424;6.788;2024-03-17T05:48:31;8.70;;;6.70;;
7845;SDS011;3968;51.424;6.788;2024-03-17T05:50:57;7.97;;;6.43;;
7845;SDS011;3968;51.424;6.788;2024-03-17T05:53:23;8.13;;;6.13;;
7845;SDS011;3968;51.424;6.788;2024-03-17T05:55:51;8.73;;;6.50;;
7845;SDS011;3968;51.424;6.788;2024-03-17T05:58:17;8.57;;;6.10;;
7845;SDS011;3968;51.424;6.788;2024-03-17T06:00:43;9.17;;;6.47;;
7845;SDS011;3968;51.424;6.788;2024-03-17T06:03:09;7.50;;;6.17;;
7845;SDS011;3968;51.424;6.788;2024-03-17T06:05:38;7.43;;;5.60;;
7845;SDS011;3968;51.424;6.788;2024-03-17T06:08:07;8.50;;;6.03;;
7845;SDS011;3968;51.424;6.788;2024-03-17T06:10:34;7.37;;;5.73;;
7845;SDS011;3968;51.424;6.788;2024-03-17T06:13:01;7.33;;;6.27;;
7845;SDS011;3968;51.424;6.788;2024-03-17T06:15:28;9.23;;;6.50;;
7845;SDS011;3968;51.424;6.788;2024-03-17T06:17:54;7.67;;;6.30;;
7845;SDS011;3968;51.424;6.788;2024-03-17T06:20:21;6.57;;;5.50;;
7845;SDS011;3968;51.424;6.788;2024-03-17T06:22:48;7.33;;;5.87;;
7845;SDS011;3968;51.424;6.788;2024-03-17T06:25:14;10.30;;;6.10;;
7845;SDS011;3968;51.424;6.788;2024-03-17T06:27:40;8.07;;;6.17;;
7845;SDS011;3968;51.424;6.788;2024-03-17T06:30:06;11.60;;;5.93;;
7845;SDS011;3968;51.424;6.788;2024-03-17T06:32:34;6.50;;;5.80;;
7845;SDS011;3968;51.424;6.788;2024-03-17T06:35:03;6.57;;;5.80;;
7845;SDS011;3968;51.424;6.788;2024-03-17T06:37:29;9.97;;;6.50;;
7845;SDS011;3968;51.424;6.788;2024-03-17T06:39:55;7.07;;;5.73;;
7845;SDS011;3968;51.424;6.788;2024-03-17T06:42:20;8.63;;;5.77;;
7845;SDS011;3968;51.424;6.788;2024-03-17T06:44:46;6.87;;;5.37;;
7845;SDS011;3968;51.424;6.788;2024-03-17T06:47:12;8.63;;;6.30;;
7845;SDS011;3968;51.424;6.788;2024-03-17T06:49:38;9.17;;;5.63;;
7845;SDS011;3968;51.424;6.788;2024-03-17T06:52:03;7.83;;;5.90;;
7845;SDS011;3968;51.424;6.788;2024-03-17T06:54:30;7.20;;;5.33;;
7845;SDS011;3968;51.424;6.788;2024-03-17T06:56:58;6.97;;;4.97;;
7845;SDS011;3968;51.424;6.788;2024-03-17T06:59:23;6.80;;;5.63;;
7845;SDS011;3968;51.424;6.788;2024-03-17T07:01:49;9.27;;;5.33;;
7845;SDS011;3968;51.424;6.788;2024-03-17T07:04:15;6.00;;;5.00;;
7845;SDS011;3968;51.424;6.788;2024-03-17T07:06:41;6.70;;;4.73;;
7845;SDS011;3968;51.424;6.788;2024-03-17T07:09:07;5.70;;;4.60;;
7845;SDS011;3968;51.424;6.788;2024-03-17T07:11:33;5.83;;;4.60;;
7845;SDS011;3968;51.424;6.788;2024-03-17T07:13:59;5.63;;;5.03;;
7845;SDS011;3968;51.424;6.788;2024-03-17T07:16:25;6.40;;;4.70;;
7845;SDS011;3968;51.424;6.788;2024-03-17T07:18:51;7.33;;;4.67;;
7845;SDS011;3968;51.424;6.788;2024-03-17T07:21:17;4.97;;;4.30;;
7845;SDS011;3968;51.424;6.788;2024-03-17T07:23:43;5.07;;;4.03;;
7845;SDS011;3968;51.424;6.788;2024-03-17T07:26:09;6.10;;;4.60;;
7845;SDS011;3968;51.424;6.788;2024-03-17T07:28:35;6.53;;;4.00;;
7845;SDS011;3968;51.424;6.788;2024-03-17T07:31:05;6.63;;;4.43;;
7845;SDS011;3968;51.424;6.788;2024-03-17T07:33:33;5.73;;;4.43;;
7845;SDS011;3968;51.424;6.788;2024-03-17T07:35:59;5.67;;;4.07;;
7845;SDS011;3968;51.424;6.788;2024-03-17T07:38:26;6.43;;;3.77;;
7845;SDS011;3968;51.424;6.788;2024-03-17T07:40:56;6.37;;;4.20;;
7845;SDS011;3968;51.424;6.788;2024-03-17T07:43:26;4.73;;;3.87;;
7845;SDS011;3968;51.424;6.788;2024-03-17T07:46:05;6.53;;;4.10;;
7845;SDS011;3968;51.424;6.788;2024-03-17T07:48:33;6.80;;;3.93;;
7845;SDS011;3968;51.424;6.788;2024-03-17T07:51:04;5.10;;;3.97;;
7845;SDS011;3968;51.424;6.788;2024-03-17T07:53:35;6.17;;;3.57;;
7845;SDS011;3968;51.424;6.788;2024-03-17T07:56:05;6.00;;;3.80;;
7845;SDS011;3968;51.424;6.788;2024-03-17T07:58:34;3.33;;;3.03;;
7845;SDS011;3968;51.424;6.788;2024-03-17T08:01:03;4.27;;;3.33;;
7845;SDS011;3968;51.424;6.788;2024-03-17T08:03:30;3.60;;;3.27;;
7845;SDS011;3968;51.424;6.788;2024-03-17T08:05:56;3.30;;;3.00;;
7845;SDS011;3968;51.424;6.788;2024-03-17T08:08:23;4.57;;;3.33;;
7845;SDS011;3968;51.424;6.788;2024-03-17T08:10:49;4.47;;;3.13;;
7845;SDS011;3968;51.424;6.788;2024-03-17T08:13:16;4.67;;;3.10;;
7845;SDS011;3968;51.424;6.788;2024-03-17T08:15:42;3.40;;;2.80;;
7845;SDS011;3968;51.424;6.788;2024-03-17T08:18:08;3.87;;;2.90;;
7845;SDS011;3968;51.424;6.788;2024-03-17T08:20:38;3.00;;;2.70;;
7845;SDS011;3968;51.424;6.788;2024-03-17T08:23:08;4.70;;;2.93;;
7845;SDS011;3968;51.424;6.788;2024-03-17T08:25:35;2.53;;;2.33;;
7845;SDS011;3968;51.424;6.788;2024-03-17T08:28:01;2.60;;;2.40;;
7845;SDS011;3968;51.424;6.788;2024-03-17T08:30:27;6.20;;;2.80;;
7845;SDS011;3968;51.424;6.788;2024-03-17T08:32:53;3.43;;;3.13;;
7845;SDS011;3968;51.424;6.788;2024-03-17T08:35:19;4.37;;;3.00;;
7845;SDS011;3968;51.424;6.788;2024-03-17T08:37:45;3.43;;;2.93;;
7845;SDS011;3968;51.424;6.788;2024-03-17T08:40:11;3.40;;;2.70;;
7845;SDS011;3968;51.424;6.788;2024-03-17T08:42:37;4.17;;;3.00;;
7845;SDS011;3968;51.424;6.788;2024-03-17T08:45:03;4.80;;;2.80;;
7845;SDS011;3968;51.424;6.788;2024-03-17T08:47:29;3.10;;;2.80;;
7845;SDS011;3968;51.424;6.788;2024-03-17T08:49:54;3.30;;;2.80;;
7845;SDS011;3968;51.424;6.788;2024-03-17T08:52:20;4.00;;;2.90;;
7845;SDS011;3968;51.424;6.788;2024-03-17T08:54:46;4.03;;;3.07;;
7845;SDS011;3968;51.424;6.788;2024-03-17T08:57:12;4.73;;;3.30;;
7845;SDS011;3968;51.424;6.788;2024-03-17T08:59:38;4.03;;;2.93;;
7845;SDS011;3968;51.424;6.788;2024-03-17T09:02:04;3.13;;;2.50;;
7845;SDS011;3968;51.424;6.788;2024-03-17T09:04:31;2.87;;;2.50;;
7845;SDS011;3968;51.424;6.788;2024-03-17T09:06:57;4.60;;;2.70;;
7845;SDS011;3968;51.424;6.788;2024-03-17T09:09:23;3.13;;;2.60;;
7845;SDS011;3968;51.424;6.788;2024-03-17T09:11:49;5.07;;;2.90;;
7845;SDS011;3968;51.424;6.788;2024-03-17T09:14:16;5.70;;;3.00;;
7845;SDS011;3968;51.424;6.788;2024-03-17T09:16:41;4.70;;;2.97;;
7845;SDS011;3968;51.424;6.788;2024-03-17T09:19:08;4.37;;;3.20;;
7845;SDS011;3968;51.424;6.788;2024-03-17T09:21:34;3.20;;;2.90;;
7845;SDS011;3968;51.424;6.788;2024-03-17T09:23:59;4.63;;;3.10;;
7845;SDS011;3968;51.424;6.788;2024-03-17T09:26:25;3.57;;;3.27;;
7845;SDS011;3968;51.424;6.788;2024-03-17T09:28:50;4.10;;;3.00;;
7845;SDS011;3968;51.424;6.788;2024-03-17T09:31:16;3.13;;;2.80;;
7845;SDS011;3968;51.424;6.788;2024-03-17T09:33:42;3.00;;;2.67;;
7845;SDS011;3968;51.424;6.788;2024-03-17T09:36:08;3.80;;;3.17;;
7845;SDS011;3968;51.424;6.788;2024-03-17T09:38:38;3.60;;;2.60;;
7845;SDS011;3968;51.424;6.788;2024-03-17T09:41:05;3.67;;;3.07;;
7845;SDS011;3968;51.424;6.788;2024-03-17T09:43:32;4.83;;;2.90;;
7845;SDS011;3968;51.424;6.788;2024-03-17T09:46:01;4.93;;;2.93;;
7845;SDS011;3968;51.424;6.788;2024-03-17T09:48:28;4.93;;;2.80;;
7845;SDS011;3968;51.424;6.788;2024-03-17T09:50:54;5.70;;;2.93;;
7845;SDS011;3968;51.424;6.788;2024-03-17T09:53:22;2.70;;;2.50;;
7845;SDS011;3968;51.424;6.788;2024-03-17T09:55:53;4.93;;;3.10;;
7845;SDS011;3968;51.424;6.788;2024-03-17T09:58:33;3.83;;;2.90;;
7845;SDS011;3968;51.424;6.788;2024-03-17T10:00:59;3.80;;;3.10;;
7845;SDS011;3968;51.424;6.788;2024-03-17T10:06:14;4.33;;;3.30;;
7845;SDS011;3968;51.424;6.788;2024-03-17T10:08:41;4.93;;;3.00;;
7845;SDS011;3968;51.424;6.788;2024-03-17T10:11:10;4.43;;;3.07;;
7845;SDS011;3968;51.424;6.788;2024-03-17T10:13:36;4.63;;;2.97;;
7845;SDS011;3968;51.424;6.788;2024-03-17T10:16:02;3.47;;;2.80;;
7845;SDS011;3968;51.424;6.788;2024-03-17T10:18:29;3.90;;;3.30;;
7845;SDS011;3968;51.424;6.788;2024-03-17T10:20:55;5.20;;;2.90;;
7845;SDS011;3968;51.424;6.788;2024-03-17T10:23:22;3.30;;;3.00;;
7845;SDS011;3968;51.424;6.788;2024-03-17T10:25:48;4.53;;;3.00;;
7845;SDS011;3968;51.424;6.788;2024-03-17T10:28:14;3.93;;;3.37;;
7845;SDS011;3968;51.424;6.788;2024-03-17T10:30:42;4.17;;;3.00;;
7845;SDS011;3968;51.424;6.788;2024-03-17T10:33:22;3.73;;;2.93;;
7845;SDS011;3968;51.424;6.788;2024-03-17T10:35:50;3.07;;;2.77;;
7845;SDS011;3968;51.424;6.788;2024-03-17T10:38:22;4.80;;;3.10;;
7845;SDS011;3968;51.424;6.788;2024-03-17T10:40:48;3.57;;;3.10;;
7845;SDS011;3968;51.424;6.788;2024-03-17T10:43:14;3.40;;;3.10;;
7845;SDS011;3968;51.424;6.788;2024-03-17T10:45:39;3.67;;;2.90;;
7845;SDS011;3968;51.424;6.788;2024-03-17T10:48:06;4.50;;;3.50;;
7845;SDS011;3968;51.424;6.788;2024-03-17T10:50:35;4.93;;;3.20;;
7845;SDS011;3968;51.424;6.788;2024-03-17T10:53:06;3.00;;;2.70;;
7845;SDS011;3968;51.424;6.788;2024-03-17T10:55:45;6.70;;;3.23;;
7845;SDS011;3968;51.424;6.788;2024-03-17T11:01:03;3.90;;;3.00;;
7845;SDS011;3968;51.424;6.788;2024-03-17T11:03:33;4.33;;;3.00;;
7845;SDS011;3968;51.424;6.788;2024-03-17T11:06:00;3.87;;;3.00;;
7845;SDS011;3968;51.424;6.788;2024-03-17T11:08:29;4.13;;;3.27;;
7845;SDS011;3968;51.424;6.788;2024-03-17T11:10:57;4.70;;;3.50;;
7845;SDS011;3968;51.424;6.788;2024-03-17T11:13:27;4.47;;;3.67;;
7845;SDS011;3968;51.424;6.788;2024-03-17T11:15:54;5.53;;;3.23;;
7845;SDS011;3968;51.424;6.788;2024-03-17T11:23:46;3.88;;;3.40;;
7845;SDS011;3968;51.424;6.788;2024-03-17T11:26:27;12.60;;;9.83;;
7845;SDS011;3968;51.424;6.788;2024-03-17T11:28:53;6.07;;;4.88;;
7845;SDS011;3968;51.424;6.788;2024-03-17T11:31:31;4.28;;;3.42;;
7845;SDS011;3968;51.424;6.788;2024-03-17T11:36:51;4.47;;;3.30;;
7845;SDS011;3968;51.424;6.788;2024-03-17T11:39:20;6.80;;;3.33;;
7845;SDS011;3968;51.424;6.788;2024-03-17T11:42:06;3.78;;;3.40;;
7845;SDS011;3968;51.424;6.788;2024-03-17T11:44:35;6.80;;;3.60;;
7845;SDS011;3968;51.424;6.788;2024-03-17T11:47:02;4.15;;;3.40;;
7845;SDS011;3968;51.424;6.788;2024-03-17T11:54:32;7.87;;;3.63;;
7845;SDS011;3968;51.424;6.788;2024-03-17T11:57:03;7.37;;;4.87;;
7845;SDS011;3968;51.424;6.788;2024-03-17T11:59:34;7.95;;;5.68;;
7845;SDS011;3968;51.424;6.788;2024-03-17T12:02:00;4.45;;;3.85;;
7845;SDS011;3968;51.424;6.788;2024-03-17T12:04:27;4.75;;;3.92;;
7845;SDS011;3968;51.424;6.788;2024-03-17T12:06:57;5.93;;;3.78;;
7845;SDS011;3968;51.424;6.788;2024-03-17T12:09:24;5.25;;;3.58;;
7845;SDS011;3968;51.424;6.788;2024-03-17T12:12:11;8.73;;;4.60;;
7845;SDS011;3968;51.424;6.788;2024-03-17T12:14:40;6.55;;;3.45;;
7845;SDS011;3968;51.424;6.788;2024-03-17T12:17:07;3.50;;;3.13;;
7845;SDS011;3968;51.424;6.788;2024-03-17T12:19:34;6.73;;;3.93;;
7845;SDS011;3968;51.424;6.788;2024-03-17T12:22:01;3.70;;;2.80;;
7845;SDS011;3968;51.424;6.788;2024-03-17T12:24:28;3.85;;;3.00;;
7845;SDS011;3968;51.424;6.788;2024-03-17T12:26:55;5.35;;;3.38;;
7845;SDS011;3968;51.424;6.788;2024-03-17T12:29:30;6.75;;;3.88;;
7845;SDS011;3968;51.424;6.788;2024-03-17T12:32:19;6.10;;;3.67;;
7845;SDS011;3968;51.424;6.788;2024-03-17T12:34:47;6.93;;;3.90;;
7845;SDS011;3968;51.424;6.788;2024-03-17T12:39:46;6.10;;;3.42;;
7845;SDS011;3968;51.424;6.788;2024-03-17T12:44:40;6.72;;;3.70;;
7845;SDS011;3968;51.424;6.788;2024-03-17T12:47:19;4.82;;;3.65;;
7845;SDS011;3968;51.424;6.788;2024-03-17T12:49:48;6.45;;;3.38;;
7845;SDS011;3968;51.424;6.788;2024-03-17T12:54:44;7.40;;;3.20;;
7845;SDS011;3968;51.424;6.788;2024-03-17T12:57:17;5.17;;;3.03;;
7845;SDS011;3968;51.424;6.788;2024-03-17T13:00:16;5.30;;;3.45;;
7845;SDS011;3968;51.424;6.788;2024-03-17T13:02:59;5.27;;;3.40;;
7845;SDS011;3968;51.424;6.788;2024-03-17T13:05:26;5.60;;;3.70;;
7845;SDS011;3968;51.424;6.788;2024-03-17T13:07:52;3.75;;;2.90;;
7845;SDS011;3968;51.424;6.788;2024-03-17T13:10:21;4.38;;;3.08;;
7845;SDS011;3968;51.424;6.788;2024-03-17T13:12:47;3.50;;;3.20;;
7845;SDS011;3968;51.424;6.788;2024-03-17T13:15:22;5.43;;;4.00;;
7845;SDS011;3968;51.424;6.788;2024-03-17T13:17:48;7.55;;;4.13;;
7845;SDS011;3968;51.424;6.788;2024-03-17T13:20:14;5.80;;;3.47;;
7845;SDS011;3968;51.424;6.788;2024-03-17T13:22:44;6.97;;;3.25;;
7845;SDS011;3968;51.424;6.788;2024-03-17T13:27:43;6.05;;;3.45;;
7845;SDS011;3968;51.424;6.788;2024-03-17T13:30:10;5.90;;;3.27;;
7845;SDS011;3968;51.424;6.788;2024-03-17T13:32:39;6.93;;;5.32;;
7845;SDS011;3968;51.424;6.788;2024-03-17T13:35:10;6.32;;;4.32;;
7845;SDS011;3968;51.424;6.788;2024-03-17T13:37:43;4.38;;;3.70;;
7845;SDS011;3968;51.424;6.788;2024-03-17T13:40:13;3.50;;;3.00;;
7845;SDS011;3968;51.424;6.788;2024-03-17T13:42:42;3.33;;;2.85;;
7845;SDS011;3968;51.424;6.788;2024-03-17T13:45:10;6.25;;;3.60;;
7845;SDS011;3968;51.424;6.788;2024-03-17T13:47:37;3.42;;;2.80;;
7845;SDS011;3968;51.424;6.788;2024-03-17T13:50:03;6.35;;;3.10;;
7845;SDS011;3968;51.424;6.788;2024-03-17T13:52:31;4.18;;;3.20;;
7845;SDS011;3968;51.424;6.788;2024-03-17T13:54:58;4.93;;;2.43;;
7845;SDS011;3968;51.424;6.788;2024-03-17T13:57:24;3.90;;;3.20;;
7845;SDS011;3968;51.424;6.788;2024-03-17T13:59:50;4.63;;;3.15;;
7845;SDS011;3968;51.424;6.788;2024-03-17T14:02:17;4.15;;;3.03;;
7845;SDS011;3968;51.424;6.788;2024-03-17T14:04:43;5.67;;;3.57;;
7845;SDS011;3968;51.424;6.788;2024-03-17T14:07:09;6.60;;;2.75;;
7845;SDS011;3968;51.424;6.788;2024-03-17T14:09:34;3.92;;;2.90;;
7845;SDS011;3968;51.424;6.788;2024-03-17T14:12:00;3.80;;;2.88;;
7845;SDS011;3968;51.424;6.788;2024-03-17T14:14:26;6.15;;;3.33;;
7845;SDS011;3968;51.424;6.788;2024-03-17T14:16:57;4.28;;;3.35;;
7845;SDS011;3968;51.424;6.788;2024-03-17T14:19:22;4.60;;;3.38;;
7845;SDS011;3968;51.424;6.788;2024-03-17T14:21:48;5.32;;;3.30;;
7845;SDS011;3968;51.424;6.788;2024-03-17T14:24:14;4.40;;;3.08;;
7845;SDS011;3968;51.424;6.788;2024-03-17T14:26:39;4.25;;;2.95;;
7845;SDS011;3968;51.424;6.788;2024-03-17T14:29:05;5.38;;;3.22;;
7845;SDS011;3968;51.424;6.788;2024-03-17T14:31:31;7.10;;;3.37;;
7845;SDS011;3968;51.424;6.788;2024-03-17T14:33:59;5.82;;;3.38;;
7845;SDS011;3968;51.424;6.788;2024-03-17T14:36:25;3.67;;;2.95;;
7845;SDS011;3968;51.424;6.788;2024-03-17T14:38:53;6.68;;;3.40;;
7845;SDS011;3968;51.424;6.788;2024-03-17T14:41:19;5.78;;;3.42;;
7845;SDS011;3968;51.424;6.788;2024-03-17T14:43:44;4.10;;;3.08;;
7845;SDS011;3968;51.424;6.788;2024-03-17T14:46:11;5.23;;;3.60;;
7845;SDS011;3968;51.424;6.788;2024-03-17T14:48:38;6.07;;;3.25;;
7845;SDS011;3968;51.424;6.788;2024-03-17T14:51:05;4.20;;;3.22;;
7845;SDS011;3968;51.424;6.788;2024-03-17T14:53:30;5.10;;;3.27;;
7845;SDS011;3968;51.424;6.788;2024-03-17T14:55:56;5.75;;;3.20;;
7845;SDS011;3968;51.424;6.788;2024-03-17T14:58:21;6.47;;;2.83;;
7845;SDS011;3968;51.424;6.788;2024-03-17T15:00:47;3.80;;;2.75;;
7845;SDS011;3968;51.424;6.788;2024-03-17T15:03:13;3.10;;;2.80;;
7845;SDS011;3968;51.424;6.788;2024-03-17T15:05:38;9.35;;;4.13;;
7845;SDS011;3968;51.424;6.788;2024-03-17T15:08:04;6.30;;;3.80;;
7845;SDS011;3968;51.424;6.788;2024-03-17T15:10:30;5.07;;;3.47;;
7845;SDS011;3968;51.424;6.788;2024-03-17T15:13:00;5.32;;;3.25;;
7845;SDS011;3968;51.424;6.788;2024-03-17T15:15:26;4.70;;;3.15;;
7845;SDS011;3968;51.424;6.788;2024-03-17T15:17:53;4.55;;;2.88;;
7845;SDS011;3968;51.424;6.788;2024-03-17T15:20:19;3.55;;;2.65;;
7845;SDS011;3968;51.424;6.788;2024-03-17T15:22:46;4.35;;;2.78;;
7845;SDS011;3968;51.424;6.788;2024-03-17T15:25:14;4.80;;;2.85;;
7845;SDS011;3968;51.424;6.788;2024-03-17T15:27:41;5.20;;;3.17;;
7845;SDS011;3968;51.424;6.788;2024-03-17T15:30:13;4.68;;;2.63;;
7845;SDS011;3968;51.424;6.788;2024-03-17T15:32:40;4.60;;;2.97;;
7845;SDS011;3968;51.424;6.788;2024-03-17T15:35:07;3.70;;;2.78;;
7845;SDS011;3968;51.424;6.788;2024-03-17T15:37:33;4.03;;;2.78;;
7845;SDS011;3968;51.424;6.788;2024-03-17T15:39:58;2.80;;;2.40;;
7845;SDS011;3968;51.424;6.788;2024-03-17T15:42:24;6.43;;;2.70;;
7845;SDS011;3968;51.424;6.788;2024-03-17T15:44:50;3.25;;;2.60;;
7845;SDS011;3968;51.424;6.788;2024-03-17T15:47:16;5.50;;;2.90;;